RYR9284 LPPR-LPPT
Flight info
| Callsign | RYR9284 |
|---|---|
| Flight time | N/A |
| Altitude | 23000 |
| Route | MANIK DCT ABRIL DCT XAMAX |
| Aircraft | B38M/M-SDE1FGHILORVWXY/HB1 |
Departure
| Time | 2026-05-01 10:33 |
|---|---|
| Airport | Francisco de Sá Carneiro Airport (LPPR) |
Arrival
| Time | N/A |
|---|---|
| Airport | Lisbon Humberto Delgado Airport (LPPT) |
| Time | Latitude | Longitude | Altitude | Speed | Heading |
|---|---|---|---|---|---|
| 2026-05-01 09:52 | 41.23438 | -8.67267 | 239 ft | 0 kts | 59° |
| 2026-05-01 10:23 | 41.23437 | -8.67267 | 239 ft | 0 kts | 59° |
| 2026-05-01 10:24 | 41.23429 | -8.67287 | 239 ft | 2 kts | 59° |
| 2026-05-01 10:24 | 41.23418 | -8.67326 | 239 ft | 2 kts | 92° |
| 2026-05-01 10:25 | 41.23440 | -8.67374 | 239 ft | 4 kts | 163° |
| 2026-05-01 10:25 | 41.23447 | -8.67376 | 239 ft | 0 kts | 168° |
| 2026-05-01 10:30 | 41.23446 | -8.67376 | 239 ft | 1 kts | 168° |
| 2026-05-01 10:31 | 41.23329 | -8.67449 | 239 ft | 12 kts | 259° |
| 2026-05-01 10:31 | 41.23299 | -8.67658 | 239 ft | 16 kts | 268° |
| 2026-05-01 10:32 | 41.23499 | -8.67782 | 234 ft | 42 kts | 349° |
| 2026-05-01 10:32 | 41.24033 | -8.67923 | 220 ft | 112 kts | 349° |
| 2026-05-01 10:32 | 41.26161 | -8.68525 | 752 ft | 173 kts | 346° |
| 2026-05-01 10:33 | 41.28569 | -8.69352 | 2140 ft | 190 kts | 347° |
| 2026-05-01 10:33 | 41.31426 | -8.70095 | 3146 ft | 232 kts | 349° |
| 2026-05-01 10:34 | 41.33081 | -8.70507 | 3626 ft | 252 kts | 350° |
| 2026-05-01 10:34 | 41.34815 | -8.70404 | 4438 ft | 251 kts | 21° |
| 2026-05-01 10:34 | 41.36177 | -8.69016 | 5218 ft | 250 kts | 58° |
| 2026-05-01 10:35 | 41.36079 | -8.64749 | 6710 ft | 244 kts | 129° |
| 2026-05-01 10:35 | 41.34724 | -8.63446 | 7373 ft | 244 kts | 163° |
| 2026-05-01 10:35 | 41.33047 | -8.63015 | 8049 ft | 248 kts | 173° |
| 2026-05-01 10:35 | 41.31320 | -8.62742 | 8744 ft | 251 kts | 176° |
| 2026-05-01 10:36 | 41.27821 | -8.62411 | 10132 ft | 257 kts | 178° |
| 2026-05-01 10:36 | 41.26030 | -8.62268 | 10760 ft | 259 kts | 178° |
| 2026-05-01 10:36 | 41.24210 | -8.62119 | 11266 ft | 271 kts | 178° |
| 2026-05-01 10:37 | 41.22252 | -8.61960 | 11617 ft | 291 kts | 178° |
| 2026-05-01 10:37 | 41.17962 | -8.61619 | 12554 ft | 323 kts | 178° |
| 2026-05-01 10:37 | 41.15706 | -8.61440 | 13366 ft | 326 kts | 178° |
| 2026-05-01 10:38 | 41.13428 | -8.61256 | 14141 ft | 331 kts | 178° |
| 2026-05-01 10:38 | 41.11113 | -8.61069 | 14872 ft | 334 kts | 178° |
| 2026-05-01 10:38 | 41.08790 | -8.60880 | 15694 ft | 334 kts | 178° |
| 2026-05-01 10:38 | 41.06473 | -8.60688 | 16552 ft | 333 kts | 178° |
| 2026-05-01 10:39 | 41.04162 | -8.60498 | 17442 ft | 331 kts | 178° |
| 2026-05-01 10:39 | 41.01873 | -8.60305 | 18353 ft | 328 kts | 178° |
| 2026-05-01 10:39 | 40.99606 | -8.60111 | 19175 ft | 324 kts | 178° |
| 2026-05-01 10:39 | 40.97403 | -8.59907 | 19990 ft | 319 kts | 178° |
| 2026-05-01 10:40 | 40.95212 | -8.59689 | 20836 ft | 313 kts | 178° |
| 2026-05-01 10:40 | 40.93067 | -8.59457 | 21708 ft | 305 kts | 178° |
| 2026-05-01 10:40 | 40.90917 | -8.59213 | 22057 ft | 317 kts | 178° |
| 2026-05-01 10:40 | 40.88671 | -8.58960 | 22261 ft | 331 kts | 178° |
| 2026-05-01 10:41 | 40.86325 | -8.58699 | 22460 ft | 345 kts | 178° |
| 2026-05-01 10:41 | 40.83887 | -8.58431 | 22656 ft | 358 kts | 178° |
| 2026-05-01 10:41 | 40.78766 | -8.57872 | 23070 ft | 379 kts | 178° |
| 2026-05-01 10:42 | 40.76156 | -8.57589 | 23245 ft | 383 kts | 178° |
| 2026-05-01 10:42 | 40.73497 | -8.57313 | 23470 ft | 383 kts | 180° |
| 2026-05-01 10:42 | 40.70827 | -8.57179 | 23695 ft | 385 kts | 181° |
| 2026-05-01 10:42 | 40.68129 | -8.57072 | 23798 ft | 395 kts | 181° |
| 2026-05-01 10:43 | 40.65326 | -8.57006 | 23825 ft | 409 kts | 182° |
| 2026-05-01 10:43 | 40.62440 | -8.57035 | 24022 ft | 418 kts | 183° |
| 2026-05-01 10:43 | 40.59534 | -8.57005 | 24509 ft | 420 kts | 178° |
| 2026-05-01 10:43 | 40.56611 | -8.56743 | 24919 ft | 422 kts | 179° |
| 2026-05-01 10:44 | 40.53660 | -8.56528 | 25142 ft | 426 kts | 179° |
| 2026-05-01 10:44 | 40.50721 | -8.56699 | 25162 ft | 420 kts | 193° |
| 2026-05-01 10:44 | 40.47996 | -8.57841 | 25178 ft | 416 kts | 207° |
| 2026-05-01 10:44 | 40.45421 | -8.59573 | 25183 ft | 417 kts | 207° |
| 2026-05-01 10:45 | 40.42811 | -8.61230 | 25181 ft | 417 kts | 207° |
| 2026-05-01 10:45 | 40.40187 | -8.62873 | 25181 ft | 417 kts | 207° |
| 2026-05-01 10:45 | 40.37565 | -8.64502 | 25182 ft | 417 kts | 207° |
| 2026-05-01 10:45 | 40.34941 | -8.66127 | 25180 ft | 417 kts | 206° |
| 2026-05-01 10:46 | 40.32317 | -8.67750 | 25180 ft | 417 kts | 206° |
| 2026-05-01 10:46 | 40.29692 | -8.69371 | 25184 ft | 417 kts | 206° |
| 2026-05-01 10:46 | 40.27098 | -8.70972 | 25183 ft | 417 kts | 206° |
| 2026-05-01 10:46 | 40.24476 | -8.72589 | 25184 ft | 417 kts | 206° |
| 2026-05-01 10:47 | 40.21850 | -8.74206 | 25182 ft | 417 kts | 206° |
| 2026-05-01 10:47 | 40.19222 | -8.75824 | 25185 ft | 417 kts | 206° |
| 2026-05-01 10:47 | 40.16596 | -8.77438 | 25180 ft | 417 kts | 206° |
| 2026-05-01 10:47 | 40.13969 | -8.79052 | 25181 ft | 417 kts | 206° |
| 2026-05-01 10:48 | 40.11342 | -8.80665 | 25174 ft | 417 kts | 206° |
| 2026-05-01 10:48 | 40.08718 | -8.82275 | 25175 ft | 417 kts | 206° |
| 2026-05-01 10:48 | 40.06091 | -8.83885 | 25171 ft | 417 kts | 206° |
| 2026-05-01 10:48 | 40.03465 | -8.85493 | 25171 ft | 417 kts | 206° |
| 2026-05-01 10:49 | 40.00839 | -8.87099 | 25165 ft | 417 kts | 206° |
| 2026-05-01 10:49 | 39.98209 | -8.88707 | 25163 ft | 417 kts | 206° |
| 2026-05-01 10:49 | 39.95617 | -8.90291 | 25160 ft | 417 kts | 206° |
| 2026-05-01 10:49 | 39.92990 | -8.91894 | 25159 ft | 417 kts | 206° |
| 2026-05-01 10:50 | 39.90359 | -8.93498 | 25157 ft | 417 kts | 206° |
| 2026-05-01 10:50 | 39.87728 | -8.95101 | 25158 ft | 417 kts | 206° |
| 2026-05-01 10:50 | 39.85096 | -8.96703 | 25157 ft | 417 kts | 206° |
| 2026-05-01 10:50 | 39.82469 | -8.98300 | 25160 ft | 417 kts | 206° |
| 2026-05-01 10:51 | 39.79838 | -8.99899 | 25155 ft | 418 kts | 206° |
| 2026-05-01 10:51 | 39.77204 | -9.01498 | 25159 ft | 418 kts | 206° |
| 2026-05-01 10:51 | 39.74570 | -9.03096 | 25162 ft | 418 kts | 206° |
| 2026-05-01 10:51 | 39.71980 | -9.04666 | 25103 ft | 417 kts | 206° |
| 2026-05-01 10:52 | 39.69354 | -9.06256 | 24692 ft | 415 kts | 206° |
| 2026-05-01 10:52 | 39.66742 | -9.07837 | 24300 ft | 413 kts | 205° |
| 2026-05-01 10:52 | 39.64105 | -9.09284 | 23901 ft | 412 kts | 198° |
| 2026-05-01 10:52 | 39.61298 | -9.09989 | 23464 ft | 411 kts | 187° |
| 2026-05-01 10:53 | 39.58474 | -9.10480 | 22994 ft | 409 kts | 189° |
| 2026-05-01 10:53 | 39.55673 | -9.11032 | 22440 ft | 405 kts | 190° |
| 2026-05-01 10:53 | 39.52895 | -9.11597 | 21867 ft | 402 kts | 190° |
| 2026-05-01 10:53 | 39.50179 | -9.12158 | 21312 ft | 399 kts | 190° |
| 2026-05-01 10:54 | 39.47449 | -9.12725 | 20753 ft | 396 kts | 191° |
| 2026-05-01 10:54 | 39.44738 | -9.13289 | 20209 ft | 393 kts | 191° |
| 2026-05-01 10:54 | 39.42049 | -9.13848 | 19675 ft | 390 kts | 191° |
| 2026-05-01 10:54 | 39.39373 | -9.14404 | 19145 ft | 388 kts | 191° |
| 2026-05-01 10:55 | 39.36721 | -9.14954 | 18634 ft | 385 kts | 191° |
| 2026-05-01 10:55 | 39.34082 | -9.15501 | 18053 ft | 383 kts | 191° |
| 2026-05-01 10:55 | 39.31463 | -9.16044 | 17477 ft | 381 kts | 191° |
| 2026-05-01 10:55 | 39.28842 | -9.16587 | 16900 ft | 381 kts | 190° |
| 2026-05-01 10:56 | 39.26230 | -9.17128 | 16336 ft | 380 kts | 190° |
| 2026-05-01 10:56 | 39.23621 | -9.17668 | 15787 ft | 379 kts | 190° |
| 2026-05-01 10:56 | 39.21021 | -9.18205 | 15239 ft | 378 kts | 190° |
| 2026-05-01 10:56 | 39.18457 | -9.18735 | 14710 ft | 378 kts | 190° |
| 2026-05-01 10:57 | 39.15864 | -9.19270 | 14182 ft | 377 kts | 190° |
| 2026-05-01 10:57 | 39.13278 | -9.19804 | 13624 ft | 376 kts | 190° |
| 2026-05-01 10:57 | 39.10695 | -9.20337 | 13041 ft | 375 kts | 190° |
| 2026-05-01 10:57 | 39.08122 | -9.20867 | 12472 ft | 374 kts | 190° |
| 2026-05-01 10:58 | 39.05554 | -9.21396 | 11909 ft | 373 kts | 190° |
| 2026-05-01 10:58 | 39.02990 | -9.21923 | 11358 ft | 372 kts | 190° |
| 2026-05-01 10:58 | 39.00444 | -9.22447 | 10810 ft | 371 kts | 190° |
| 2026-05-01 10:58 | 38.97901 | -9.22968 | 10286 ft | 369 kts | 190° |
| 2026-05-01 10:59 | 38.95367 | -9.23488 | 9722 ft | 368 kts | 190° |
| 2026-05-01 10:59 | 38.92881 | -9.23998 | 9156 ft | 366 kts | 190° |
| 2026-05-01 10:59 | 38.90369 | -9.24512 | 8588 ft | 364 kts | 189° |
| 2026-05-01 10:59 | 38.87871 | -9.25024 | 8030 ft | 363 kts | 189° |
| 2026-05-01 11:00 | 38.85387 | -9.25532 | 7479 ft | 361 kts | 189° |
| 2026-05-01 11:00 | 38.82917 | -9.26036 | 6945 ft | 359 kts | 189° |
| 2026-05-01 11:00 | 38.80459 | -9.26538 | 6389 ft | 357 kts | 188° |
| 2026-05-01 11:00 | 38.78010 | -9.27038 | 5817 ft | 355 kts | 188° |
| 2026-05-01 11:01 | 38.75580 | -9.27535 | 5295 ft | 353 kts | 188° |
| 2026-05-01 11:01 | 38.73213 | -9.28017 | 5155 ft | 330 kts | 188° |
| 2026-05-01 11:01 | 38.71069 | -9.28454 | 5140 ft | 303 kts | 188° |
| 2026-05-01 11:01 | 38.69073 | -9.28860 | 5129 ft | 278 kts | 188° |
| 2026-05-01 11:02 | 38.67245 | -9.29231 | 5113 ft | 255 kts | 188° |
| 2026-05-01 11:02 | 38.65555 | -9.29575 | 4992 ft | 238 kts | 188° |
| 2026-05-01 11:02 | 38.63961 | -9.29900 | 4768 ft | 226 kts | 188° |
| 2026-05-01 11:02 | 38.62438 | -9.30209 | 4539 ft | 218 kts | 188° |
| 2026-05-01 11:03 | 38.60947 | -9.30513 | 4319 ft | 216 kts | 188° |
| 2026-05-01 11:03 | 38.59480 | -9.30547 | 4071 ft | 208 kts | 162° |
| 2026-05-01 11:03 | 38.58392 | -9.29468 | 3910 ft | 198 kts | 120° |
| 2026-05-01 11:03 | 38.58121 | -9.27791 | 4000 ft | 196 kts | 84° |
| 2026-05-01 11:04 | 38.58547 | -9.26179 | 4086 ft | 193 kts | 69° |
| 2026-05-01 11:04 | 38.59099 | -9.24634 | 4029 ft | 189 kts | 60° |
| 2026-05-01 11:04 | 38.59989 | -9.23417 | 3925 ft | 189 kts | 36° |
| 2026-05-01 11:04 | 38.61145 | -9.22632 | 3739 ft | 188 kts | 23° |
| 2026-05-01 11:05 | 38.62338 | -9.22015 | 3528 ft | 182 kts | 22° |
| 2026-05-01 11:05 | 38.63458 | -9.21431 | 3359 ft | 165 kts | 23° |
| 2026-05-01 11:05 | 38.64500 | -9.20847 | 2950 ft | 164 kts | 24° |
| 2026-05-01 11:05 | 38.65531 | -9.20244 | 2567 ft | 161 kts | 25° |
| 2026-05-01 11:06 | 38.66542 | -9.19635 | 2152 ft | 161 kts | 26° |
| 2026-05-01 11:06 | 38.67501 | -9.19035 | 2062 ft | 138 kts | 28° |
| 2026-05-01 11:06 | 38.68415 | -9.18562 | 2351 ft | 147 kts | 16° |
| 2026-05-01 11:07 | 38.70454 | -9.17750 | 2808 ft | 158 kts | 23° |
| 2026-05-01 11:07 | 38.71440 | -9.17141 | 2633 ft | 158 kts | 27° |
| 2026-05-01 11:07 | 38.72476 | -9.16548 | 2000 ft | 172 kts | 23° |
| 2026-05-01 11:07 | 38.73609 | -9.15962 | 1340 ft | 177 kts | 21° |
| 2026-05-01 11:08 | 38.74736 | -9.15368 | 836 ft | 172 kts | 22° |
| 2026-05-01 11:08 | 38.75803 | -9.14847 | 549 ft | 157 kts | 21° |
| 2026-05-01 11:08 | 38.77880 | -9.13721 | 662 ft | 169 kts | 26° |
| 2026-05-01 11:09 | 38.78992 | -9.13038 | 910 ft | 187 kts | 26° |
| 2026-05-01 11:09 | 38.80203 | -9.12260 | 1201 ft | 195 kts | 29° |
| 2026-05-01 11:09 | 38.81399 | -9.11507 | 1995 ft | 192 kts | 23° |
| 2026-05-01 11:10 | 38.84033 | -9.10247 | 3256 ft | 221 kts | 20° |
| 2026-05-01 11:10 | 38.85530 | -9.09558 | 3475 ft | 234 kts | 19° |
| 2026-05-01 11:10 | 38.87106 | -9.08879 | 3602 ft | 246 kts | 19° |
| 2026-05-01 11:10 | 38.88735 | -9.08143 | 3669 ft | 252 kts | 21° |
| 2026-05-01 11:11 | 38.90365 | -9.07287 | 3579 ft | 255 kts | 23° |
| 2026-05-01 11:11 | 38.92016 | -9.06314 | 4061 ft | 268 kts | 30° |
| 2026-05-01 11:11 | 38.93520 | -9.04915 | 4159 ft | 265 kts | 45° |
| 2026-05-01 11:11 | 38.94568 | -9.02971 | 3951 ft | 275 kts | 70° |
| 2026-05-01 11:12 | 38.95235 | -9.00614 | 3822 ft | 284 kts | 71° |
| 2026-05-01 11:12 | 38.95901 | -8.98233 | 3818 ft | 289 kts | 72° |
| 2026-05-01 11:12 | 38.96187 | -8.95718 | 3817 ft | 285 kts | 100° |
| 2026-05-01 11:12 | 38.95422 | -8.93416 | 3837 ft | 283 kts | 130° |
| 2026-05-01 11:13 | 38.94016 | -8.91654 | 3842 ft | 284 kts | 140° |
| 2026-05-01 11:13 | 38.92539 | -8.89980 | 3825 ft | 279 kts | 140° |
| 2026-05-01 11:13 | 38.91120 | -8.88372 | 3833 ft | 265 kts | 140° |
| 2026-05-01 11:13 | 38.89774 | -8.86843 | 3835 ft | 251 kts | 140° |
| 2026-05-01 11:14 | 38.88506 | -8.85397 | 3828 ft | 236 kts | 140° |
| 2026-05-01 11:14 | 38.87312 | -8.84028 | 3836 ft | 228 kts | 140° |
| 2026-05-01 11:14 | 38.86133 | -8.82676 | 3839 ft | 228 kts | 140° |
| 2026-05-01 11:14 | 38.84967 | -8.81341 | 3830 ft | 228 kts | 140° |
| 2026-05-01 11:15 | 38.83786 | -8.79989 | 3822 ft | 228 kts | 140° |
| 2026-05-01 11:15 | 38.82602 | -8.78637 | 3832 ft | 228 kts | 140° |
| 2026-05-01 11:15 | 38.81420 | -8.77287 | 3842 ft | 228 kts | 140° |
| 2026-05-01 11:15 | 38.80230 | -8.75943 | 3842 ft | 228 kts | 140° |
| 2026-05-01 11:16 | 38.79039 | -8.74608 | 3820 ft | 227 kts | 140° |
| 2026-05-01 11:16 | 38.77851 | -8.73273 | 3836 ft | 227 kts | 140° |
| 2026-05-01 11:16 | 38.76659 | -8.71935 | 3836 ft | 228 kts | 140° |
| 2026-05-01 11:16 | 38.75488 | -8.70615 | 3831 ft | 227 kts | 140° |
| 2026-05-01 11:17 | 38.74298 | -8.69277 | 3834 ft | 228 kts | 140° |
| 2026-05-01 11:17 | 38.73100 | -8.67944 | 3840 ft | 230 kts | 140° |
| 2026-05-01 11:17 | 38.71896 | -8.66596 | 4526 ft | 227 kts | 140° |
| 2026-05-01 11:17 | 38.70681 | -8.65239 | 5257 ft | 234 kts | 140° |
| 2026-05-01 11:18 | 38.69451 | -8.63866 | 5445 ft | 239 kts | 140° |
| 2026-05-01 11:18 | 38.68151 | -8.62410 | 5523 ft | 257 kts | 140° |
| 2026-05-01 11:18 | 38.66788 | -8.60884 | 5624 ft | 263 kts | 140° |
| 2026-05-01 11:18 | 38.65399 | -8.59330 | 5748 ft | 267 kts | 140° |
| 2026-05-01 11:19 | 38.64014 | -8.57784 | 5885 ft | 268 kts | 140° |
| 2026-05-01 11:19 | 38.62615 | -8.56216 | 6032 ft | 268 kts | 140° |
| 2026-05-01 11:19 | 38.61206 | -8.54639 | 6143 ft | 269 kts | 140° |
| 2026-05-01 11:19 | 38.59800 | -8.53061 | 6173 ft | 269 kts | 140° |
| 2026-05-01 11:20 | 38.58391 | -8.51484 | 6174 ft | 269 kts | 140° |
| 2026-05-01 11:20 | 38.56979 | -8.49907 | 6172 ft | 269 kts | 140° |
| 2026-05-01 11:20 | 38.55567 | -8.48334 | 6167 ft | 269 kts | 140° |
| 2026-05-01 11:20 | 38.54155 | -8.46760 | 6178 ft | 270 kts | 140° |
| 2026-05-01 11:21 | 38.52741 | -8.45187 | 6180 ft | 270 kts | 140° |
| 2026-05-01 11:21 | 38.51327 | -8.43607 | 6177 ft | 270 kts | 140° |
| 2026-05-01 11:21 | 38.50002 | -8.41960 | 6156 ft | 271 kts | 126° |
| 2026-05-01 11:21 | 38.49290 | -8.39747 | 6184 ft | 273 kts | 104° |
| 2026-05-01 11:22 | 38.48951 | -8.37354 | 6182 ft | 275 kts | 99° |
| 2026-05-01 11:22 | 38.48798 | -8.34927 | 6164 ft | 275 kts | 87° |
| 2026-05-01 11:22 | 38.49111 | -8.32512 | 6173 ft | 277 kts | 78° |
| 2026-05-01 11:22 | 38.49520 | -8.30110 | 6164 ft | 276 kts | 84° |
| 2026-05-01 11:23 | 38.49338 | -8.27715 | 6154 ft | 271 kts | 111° |
| 2026-05-01 11:23 | 38.48528 | -8.25549 | 6035 ft | 272 kts | 117° |
| 2026-05-01 11:23 | 38.47746 | -8.23356 | 5825 ft | 271 kts | 115° |
| 2026-05-01 11:23 | 38.47020 | -8.21139 | 5650 ft | 270 kts | 113° |
| 2026-05-01 11:24 | 38.46340 | -8.18946 | 5472 ft | 269 kts | 112° |
| 2026-05-01 11:24 | 38.45671 | -8.16719 | 5294 ft | 269 kts | 112° |
| 2026-05-01 11:24 | 38.44364 | -8.12267 | 4946 ft | 267 kts | 111° |
| 2026-05-01 11:25 | 38.43722 | -8.10052 | 4763 ft | 266 kts | 111° |
| 2026-05-01 11:25 | 38.42450 | -8.05645 | 4408 ft | 262 kts | 111° |
| 2026-05-01 11:25 | 38.41829 | -8.03489 | 4191 ft | 254 kts | 111° |
| 2026-05-01 11:26 | 38.41233 | -8.01421 | 4054 ft | 244 kts | 111° |
| 2026-05-01 11:26 | 38.40122 | -7.97570 | 3857 ft | 223 kts | 111° |
| 2026-05-01 11:26 | 38.39592 | -7.95735 | 3596 ft | 220 kts | 111° |
| 2026-05-01 11:27 | 38.39064 | -7.93912 | 3388 ft | 216 kts | 111° |
| 2026-05-01 11:27 | 38.38561 | -7.92173 | 3356 ft | 202 kts | 111° |
| 2026-05-01 11:27 | 38.37941 | -7.90652 | 3311 ft | 187 kts | 136° |
| 2026-05-01 11:27 | 38.36843 | -7.89853 | 3310 ft | 184 kts | 168° |
| 2026-05-01 11:28 | 38.35569 | -7.89777 | 3340 ft | 185 kts | 183° |
| 2026-05-01 11:28 | 38.34282 | -7.89878 | 3352 ft | 185 kts | 184° |
| 2026-05-01 11:28 | 38.33010 | -7.90001 | 3322 ft | 186 kts | 185° |
| 2026-05-01 11:29 | 38.30439 | -7.90294 | 3032 ft | 185 kts | 186° |
| 2026-05-01 11:29 | 38.29156 | -7.90452 | 2911 ft | 185 kts | 186° |
| 2026-05-01 11:29 | 38.26595 | -7.90781 | 2608 ft | 185 kts | 186° |
| 2026-05-01 11:30 | 38.25316 | -7.90948 | 2489 ft | 184 kts | 186° |
| 2026-05-01 11:30 | 38.24047 | -7.91113 | 2455 ft | 183 kts | 186° |
| 2026-05-01 11:30 | 38.22792 | -7.91277 | 2481 ft | 184 kts | 186° |
| 2026-05-01 11:30 | 38.21526 | -7.91444 | 2506 ft | 179 kts | 187° |
| 2026-05-01 11:31 | 38.20312 | -7.91604 | 2500 ft | 172 kts | 187° |
| 2026-05-01 11:31 | 38.19175 | -7.91754 | 2520 ft | 155 kts | 187° |
| 2026-05-01 11:31 | 38.18142 | -7.91888 | 2468 ft | 146 kts | 187° |
| 2026-05-01 11:31 | 38.17138 | -7.92031 | 2345 ft | 145 kts | 188° |
| 2026-05-01 11:32 | 38.16138 | -7.92191 | 2118 ft | 144 kts | 186° |
| 2026-05-01 11:32 | 38.15150 | -7.92307 | 2085 ft | 143 kts | 186° |
| 2026-05-01 11:32 | 38.14162 | -7.92396 | 2003 ft | 145 kts | 186° |
| 2026-05-01 11:32 | 38.13164 | -7.92526 | 1673 ft | 144 kts | 189° |
| 2026-05-01 11:33 | 38.12176 | -7.92676 | 1339 ft | 143 kts | 188° |
| 2026-05-01 11:33 | 38.11190 | -7.92807 | 1057 ft | 142 kts | 187° |
| 2026-05-01 11:33 | 38.10202 | -7.92935 | 870 ft | 143 kts | 186° |
| 2026-05-01 11:33 | 38.09188 | -7.93070 | 697 ft | 152 kts | 188° |
| 2026-05-01 11:34 | 38.08112 | -7.93186 | 651 ft | 148 kts | 191° |
| 2026-05-01 11:34 | 38.07301 | -7.93319 | 640 ft | 82 kts | 187° |
| 2026-05-01 11:34 | 38.06885 | -7.93373 | 637 ft | 53 kts | 185° |
| 2026-05-01 11:34 | 38.06560 | -7.93413 | 637 ft | 33 kts | 185° |
| 2026-05-01 11:35 | 38.06391 | -7.93452 | 637 ft | 20 kts | 225° |
| 2026-05-01 11:35 | 38.06378 | -7.93624 | 637 ft | 21 kts | 276° |
| 2026-05-01 11:35 | 38.06425 | -7.93751 | 643 ft | 16 kts | 321° |
| 2026-05-01 11:35 | 38.06481 | -7.93813 | 637 ft | 1 kts | 283° |
| 2026-05-01 11:36 | 38.06471 | -7.93840 | 637 ft | 8 kts | 235° |
| 2026-05-01 11:36 | 38.06439 | -7.93888 | 637 ft | 0 kts | 230° |
| 2026-05-01 11:36 | 38.06437 | -7.93892 | 637 ft | 0 kts | 231° |